Time;durP1;ratioP1;P1;durP2;ratioP2;P2;SDS_P1;SDS_P2;PMS_P1;PMS_P2;Temp;Humidity;BMP_temperature;BMP_pressure;BME280_temperature;BME280_humidity;BME280_pressure;Samples;Min_cycle;Max_cycle;Signal;HPM_P1;HPM_P2
2024/04/21 00:00:47;;;;;;;;;;;;;;;1.56;94.50;101995.41;5530222;25;20008;-68
2024/04/21 00:03:12;;;;;;;;;;;;;;;1.49;94.83;101994.88;5517970;25;20011;-67
2024/04/21 00:05:38;;;;;;;;;;;;;;;1.50;95.20;102000.97;5527176;25;19928;-69
2024/04/21 00:08:03;;;;;;;;;;;;;;;1.47;95.20;101993.25;5555128;25;19935;-69
2024/04/21 00:10:29;;;;;;;;;;;;;;;1.40;95.51;101992.66;5523040;25;20330;-70
2024/04/21 00:12:54;;;;;;;;;;;;;;;1.44;95.86;102007.34;5527000;25;19938;-69
2024/04/21 00:15:20;;;;;;;;;;;;;;;1.44;95.73;102001.22;5538011;25;19937;-70
2024/04/21 00:17:45;;;;;;;;;;;;;;;1.45;95.54;102001.19;5535410;25;20397;-68
2024/04/21 00:20:11;;;;;;;;;;;;;;;1.52;95.70;102004.38;5493410;26;20382;-68
2024/04/21 00:22:36;;;;;;;;;;;;;;;1.61;95.83;102003.06;5547329;25;20508;-69
2024/04/21 00:25:01;;;;;;;;;;;;;;;1.66;95.99;102004.53;5543994;25;19927;-71
2024/04/21 00:27:27;;;;;;;;;;;;;;;1.65;95.11;102004.59;5535592;25;19927;-68
2024/04/21 00:29:52;;;;;;;;;;;;;;;1.59;95.45;102013.63;5554441;25;19927;-68
2024/04/21 00:32:18;;;;;;;;;;;;;;;1.54;95.78;102008.63;5547675;25;19927;-68
2024/04/21 00:34:43;;;;;;;;;;;;;;;1.47;96.55;102009.84;5505658;26;19928;-69
2024/04/21 00:37:08;;;;;;;;;;;;;;;1.39;98.20;102009.34;5417786;25;2970654;-68
2024/04/21 00:39:34;;;;;;;;;;;;;;;1.36;98.50;102019.97;5493137;26;19927;-70
2024/04/21 00:41:59;;;;;;;;;;;;;;;1.35;98.36;102018.28;5528449;25;19927;-68
2024/04/21 00:44:25;;;;;;;;;;;;;;;1.39;99.00;102024.22;5550073;25;20437;-69
2024/04/21 00:46:51;;;;;;;;;;;;;;;1.42;98.59;102024.09;5529047;25;19940;-68
2024/04/21 00:49:16;;;;;;;;;;;;;;;1.44;99.17;102023.09;5499866;25;19927;-68
2024/04/21 00:51:42;;;;;;;;;;;;;;;1.49;98.84;102026.38;5557122;25;19927;-70
2024/04/21 00:54:08;;;;;;;;;;;;;;;1.57;98.72;102028.63;5533445;25;19995;-68
2024/04/21 00:56:34;;;;;;;;;;;;;;;1.57;99.67;102027.78;5562213;25;19930;-69
2024/04/21 00:59:00;;;;;;;;;;;;;;;1.46;100.00;102028.28;5536954;25;19927;-67
2024/04/21 01:01:25;;;;;;;;;;;;;;;1.39;100.00;102034.72;5525022;26;20346;-68
2024/04/21 01:03:52;;;;;;;;;;;;;;;1.39;100.00;102039.97;5503511;26;19927;-70
2024/04/21 01:06:17;;;;;;;;;;;;;;;1.41;100.00;102044.25;5561665;25;20358;-71
2024/04/21 01:08:43;;;;;;;;;;;;;;;1.40;100.00;102042.53;5537137;25;19934;-69
2024/04/21 01:11:15;;;;;;;;;;;;;;;1.39;100.00;102050.47;5525768;25;19931;-69
2024/04/21 01:13:40;;;;;;;;;;;;;;;1.44;100.00;102057.22;5538895;25;19995;-69
2024/04/21 01:16:06;;;;;;;;;;;;;;;1.51;100.00;102050.78;5526731;25;19936;-70
2024/04/21 01:18:31;;;;;;;;;;;;;;;1.58;100.00;102061.81;5494079;26;19927;-72
2024/04/21 01:20:56;;;;;;;;;;;;;;;1.62;100.00;102055.50;5525197;25;19938;-68
2024/04/21 01:23:22;;;;;;;;;;;;;;;1.63;100.00;102067.72;5543446;25;19928;-69
2024/04/21 01:25:47;;;;;;;;;;;;;;;1.59;100.00;102074.03;5559891;25;19927;-67
2024/04/21 01:28:12;;;;;;;;;;;;;;;1.52;100.00;102075.25;5512876;25;19960;-70
2024/04/21 01:30:38;;;;;;;;;;;;;;;1.50;100.00;102087.59;5507908;26;19935;-68
2024/04/21 01:33:03;;;;;;;;;;;;;;;1.46;100.00;102080.81;5501106;25;20357;-67
2024/04/21 01:35:29;;;;;;;;;;;;;;;1.43;100.00;102073.88;5551280;25;19934;-71
2024/04/21 01:37:55;;;;;;;;;;;;;;;1.44;100.00;102088.72;5554348;25;19927;-67
2024/04/21 01:40:20;;;;;;;;;;;;;;;1.41;100.00;102086.25;5528886;25;20516;-69
2024/04/21 01:42:46;;;;;;;;;;;;;;;1.40;100.00;102083.69;5530792;25;19931;-69
2024/04/21 01:45:13;;;;;;;;;;;;;;;1.42;100.00;102101.06;5549375;25;19927;-69
2024/04/21 01:47:38;;;;;;;;;;;;;;;1.44;100.00;102099.22;5555568;25;19999;-71
2024/04/21 01:50:06;;;;;;;;;;;;;;;1.47;100.00;102099.09;5527177;25;20382;-69
2024/04/21 01:52:31;;;;;;;;;;;;;;;1.45;100.00;102098.31;5557508;25;19934;-68
2024/04/21 01:54:57;;;;;;;;;;;;;;;1.43;100.00;102092.25;5560186;25;19955;-69
2024/04/21 01:57:22;;;;;;;;;;;;;;;1.45;100.00;102095.69;5529962;26;19939;-68
2024/04/21 01:59:47;;;;;;;;;;;;;;;1.51;100.00;102097.19;5513031;26;19927;-69
2024/04/21 02:02:13;;;;;;;;;;;;;;;1.54;100.00;102097.88;5572714;25;20419;-69
2024/04/21 02:04:38;;;;;;;;;;;;;;;1.54;100.00;102107.53;5477996;26;20351;-68
2024/04/21 02:07:05;;;;;;;;;;;;;;;1.52;100.00;102110.22;5538194;26;19927;-70
2024/04/21 02:09:30;;;;;;;;;;;;;;;1.53;100.00;102111.09;5523449;25;20396;-70
2024/04/21 02:11:55;;;;;;;;;;;;;;;1.60;100.00;102107.25;5540724;25;19936;-70
2024/04/21 02:14:21;;;;;;;;;;;;;;;1.66;100.00;102111.34;5549831;25;19930;-67
2024/04/21 02:16:46;;;;;;;;;;;;;;;1.74;100.00;102114.50;5541487;25;19973;-68
2024/04/21 02:19:32;;;;;;;;;;;;;;;1.78;100.00;102118.66;5500375;25;19934;-68
2024/04/21 02:21:57;;;;;;;;;;;;;;;1.80;100.00;102117.66;5575833;25;20006;-68
2024/04/21 02:24:24;;;;;;;;;;;;;;;1.82;100.00;102126.31;5559550;25;19927;-69
2024/04/21 02:26:49;;;;;;;;;;;;;;;1.86;100.00;102140.16;5544327;25;19972;-70
2024/04/21 02:29:14;;;;;;;;;;;;;;;1.89;100.00;102137.38;5539962;25;19939;-70
2024/04/21 02:31:40;;;;;;;;;;;;;;;1.91;100.00;102135.53;5556927;25;19956;-66
2024/04/21 02:34:05;;;;;;;;;;;;;;;1.93;100.00;102132.81;5561498;25;19935;-68
2024/04/21 02:36:32;;;;;;;;;;;;;;;1.89;100.00;102137.38;5497434;26;19944;-67
2024/04/21 02:39:00;;;;;;;;;;;;;;;1.88;100.00;102143.56;5504913;25;20005;-68
2024/04/21 02:41:25;;;;;;;;;;;;;;;1.84;100.00;102145.47;5531556;25;19928;-67
2024/04/21 02:43:50;;;;;;;;;;;;;;;1.81;100.00;102153.50;5508590;25;20374;-70
2024/04/21 02:46:17;;;;;;;;;;;;;;;1.78;100.00;102142.31;5541919;25;19938;-67
2024/04/21 02:48:42;;;;;;;;;;;;;;;1.75;100.00;102145.06;5522911;25;19935;-68
2024/04/21 02:51:07;;;;;;;;;;;;;;;1.74;100.00;102148.63;5509377;25;19994;-68
2024/04/21 02:53:33;;;;;;;;;;;;;;;1.74;100.00;102146.00;5529537;25;19931;-69
2024/04/21 02:55:58;;;;;;;;;;;;;;;1.75;100.00;102147.72;5553869;25;20376;-69
2024/04/21 02:58:23;;;;;;;;;;;;;;;1.83;100.00;102158.69;5531730;25;20402;-68
2024/04/21 03:00:49;;;;;;;;;;;;;;;1.81;100.00;102150.03;5545752;25;19932;-70
2024/04/21 03:03:14;;;;;;;;;;;;;;;1.75;100.00;102159.06;5566256;25;19938;-69
2024/04/21 03:05:39;;;;;;;;;;;;;;;1.74;100.00;102162.63;5542019;25;19935;-70
2024/04/21 03:08:05;;;;;;;;;;;;;;;1.79;100.00;102175.53;5494783;26;19927;-69
2024/04/21 03:10:30;;;;;;;;;;;;;;;1.85;100.00;102164.72;5517828;25;19927;-70
2024/04/21 03:12:55;;;;;;;;;;;;;;;1.86;100.00;102171.69;5533363;25;19932;-69
2024/04/21 03:15:21;;;;;;;;;;;;;;;1.87;100.00;102178.63;5540191;25;19995;-66
2024/04/21 03:17:46;;;;;;;;;;;;;;;1.91;100.00;102189.84;5556864;25;20034;-68
2024/04/21 03:20:11;;;;;;;;;;;;;;;1.96;100.00;102190.47;5552756;25;19927;-69
2024/04/21 03:22:37;;;;;;;;;;;;;;;2.02;100.00;102185.78;5565431;25;19926;-71
2024/04/21 03:25:02;;;;;;;;;;;;;;;2.03;100.00;102200.66;5544445;25;19991;-67
2024/04/21 03:27:28;;;;;;;;;;;;;;;1.97;100.00;102200.91;5511031;26;19928;-69
2024/04/21 03:29:54;;;;;;;;;;;;;;;2.01;100.00;102204.25;5546045;25;19934;-70
2024/04/21 03:32:20;;;;;;;;;;;;;;;2.04;100.00;102204.97;5551295;25;19926;-67
2024/04/21 03:34:45;;;;;;;;;;;;;;;1.82;100.00;102168.34;5523981;25;19938;-68
2024/04/21 03:37:12;;;;;;;;;;;;;;;2.05;100.00;102214.56;5563367;25;19933;-70
2024/04/21 03:39:39;;;;;;;;;;;;;;;2.00;100.00;102210.44;5551743;25;19927;-68
2024/04/21 03:42:04;;;;;;;;;;;;;;;1.94;100.00;102213.34;5533737;25;20371;-67
2024/04/21 03:44:29;;;;;;;;;;;;;;;1.94;100.00;102214.19;5524664;25;19927;-69
2024/04/21 03:46:55;;;;;;;;;;;;;;;2.01;100.00;102220.00;5496415;26;19984;-68
2024/04/21 03:49:20;;;;;;;;;;;;;;;2.09;100.00;102221.38;5490899;25;19939;-69
2024/04/21 03:51:45;;;;;;;;;;;;;;;2.12;100.00;102230.88;5538884;25;19926;-71
2024/04/21 03:54:11;;;;;;;;;;;;;;;2.19;100.00;102234.91;5525362;25;19927;-67
2024/04/21 03:56:36;;;;;;;;;;;;;;;2.18;100.00;102236.69;5524999;25;20161;-72
2024/04/21 03:59:01;;;;;;;;;;;;;;;2.23;100.00;102227.75;5545528;25;19997;-72
2024/04/21 04:01:27;;;;;;;;;;;;;;;2.27;100.00;102229.28;5529485;25;19992;-69
2024/04/21 04:03:52;;;;;;;;;;;;;;;2.37;100.00;102230.56;5507109;25;19938;-68
2024/04/21 04:06:18;;;;;;;;;;;;;;;2.43;100.00;102235.53;5498616;25;19935;-69
2024/04/21 04:08:44;;;;;;;;;;;;;;;2.38;100.00;102240.16;5528743;25;19927;-68
2024/04/21 04:11:09;;;;;;;;;;;;;;;2.31;100.00;102247.47;5547415;25;20022;-71
2024/04/21 04:13:34;;;;;;;;;;;;;;;2.13;100.00;102211.56;5535287;25;19936;-69
2024/04/21 04:16:00;;;;;;;;;;;;;;;2.41;100.00;102248.75;5525980;25;19943;-71
2024/04/21 04:18:25;;;;;;;;;;;;;;;2.51;100.00;102250.94;5562126;25;19935;-66
2024/04/21 04:20:50;;;;;;;;;;;;;;;2.59;100.00;102249.63;5545237;25;20307;-70
2024/04/21 04:23:16;;;;;;;;;;;;;;;2.54;100.00;102253.41;5526210;26;19927;-68
2024/04/21 04:25:42;;;;;;;;;;;;;;;2.56;100.00;102262.06;5502085;25;20351;-68
2024/04/21 04:28:08;;;;;;;;;;;;;;;2.57;100.00;102263.78;5541885;25;19935;-68
2024/04/21 04:30:33;;;;;;;;;;;;;;;2.60;100.00;102266.25;5484631;25;19931;-70
2024/04/21 04:32:59;;;;;;;;;;;;;;;2.59;100.00;102269.81;5533046;25;19926;-71
2024/04/21 04:35:24;;;;;;;;;;;;;;;2.62;100.00;102272.31;5487687;26;19998;-71
2024/04/21 04:37:49;;;;;;;;;;;;;;;2.62;100.00;102270.53;5554814;25;19927;-67
2024/04/21 04:40:16;;;;;;;;;;;;;;;2.66;100.00;102274.72;5544164;25;19935;-68
2024/04/21 04:42:44;;;;;;;;;;;;;;;2.76;100.00;102265.44;5542150;25;19927;-71
2024/04/21 04:45:10;;;;;;;;;;;;;;;2.84;100.00;102266.84;5526296;26;19934;-69
2024/04/21 04:47:35;;;;;;;;;;;;;;;2.84;100.00;102272.09;5462489;26;19927;-69
2024/04/21 04:50:01;;;;;;;;;;;;;;;2.79;100.00;102281.06;5523607;26;20323;-69
2024/04/21 04:52:26;;;;;;;;;;;;;;;2.82;99.97;102295.00;5523729;26;19934;-68
2024/04/21 04:54:51;;;;;;;;;;;;;;;2.90;100.00;102298.97;5490707;26;19935;-68
2024/04/21 04:57:16;;;;;;;;;;;;;;;2.72;98.30;102277.03;5490294;26;20378;-70
2024/04/21 04:59:42;;;;;;;;;;;;;;;2.91;98.69;102305.09;5524105;26;19927;-72
2024/04/21 05:02:07;;;;;;;;;;;;;;;2.87;98.76;102309.63;5526406;26;19938;-68
2024/04/21 05:04:32;;;;;;;;;;;;;;;2.94;99.32;102311.06;5523206;26;19931;-69
2024/04/21 05:06:58;;;;;;;;;;;;;;;2.95;97.85;102315.41;5522798;26;20282;-68
2024/04/21 05:09:23;;;;;;;;;;;;;;;2.96;97.46;102303.94;5523395;26;19955;-70
2024/04/21 05:11:49;;;;;;;;;;;;;;;2.95;97.78;102318.03;5490633;26;20298;-69
2024/04/21 05:14:14;;;;;;;;;;;;;;;2.98;97.98;102312.59;5490456;26;19986;-70
2024/04/21 05:16:44;;;;;;;;;;;;;;;3.06;97.80;102317.47;5527287;26;19939;-70
2024/04/21 05:19:10;;;;;;;;;;;;;;;3.11;97.49;102326.00;5524323;26;19927;-70
2024/04/21 05:21:35;;;;;;;;;;;;;;;3.17;97.05;102301.13;5523125;26;19934;-71
2024/04/21 05:24:00;;;;;;;;;;;;;;;3.33;96.16;102331.03;5522988;26;19938;-70
2024/04/21 05:26:26;;;;;;;;;;;;;;;3.45;95.93;102327.78;5490310;26;19935;-68
2024/04/21 05:28:51;;;;;;;;;;;;;;;3.41;94.09;102313.91;5490055;26;19928;-69
2024/04/21 05:31:16;;;;;;;;;;;;;;;3.44;93.11;102336.59;5529234;25;20022;-69
2024/04/21 05:33:42;;;;;;;;;;;;;;;3.34;93.82;102335.38;5526677;26;20374;-72
2024/04/21 05:36:07;;;;;;;;;;;;;;;3.34;93.69;102341.50;5523112;26;19927;-70
2024/04/21 05:38:32;;;;;;;;;;;;;;;3.40;93.61;102341.19;5523064;26;19927;-71
2024/04/21 05:40:58;;;;;;;;;;;;;;;3.60;93.35;102347.22;5523132;26;19996;-69
2024/04/21 05:43:23;;;;;;;;;;;;;;;3.81;91.67;102351.41;5523262;26;19940;-71
2024/04/21 05:45:58;;;;;;;;;;;;;;;3.99;90.58;102347.75;5523162;26;19927;-70
2024/04/21 05:48:23;;;;;;;;;;;;;;;4.06;89.39;102356.22;5527557;26;19931;-68
2024/04/21 05:50:48;;;;;;;;;;;;;;;4.21;88.60;102354.53;5490898;26;19938;-68
2024/04/21 05:53:14;;;;;;;;;;;;;;;4.38;85.39;102361.53;5522640;26;19966;-72
2024/04/21 05:55:39;;;;;;;;;;;;;;;4.41;85.71;102374.56;5522893;26;19934;-69
2024/04/21 05:58:04;;;;;;;;;;;;;;;4.46;85.70;102373.38;5523093;26;19928;-69
2024/04/21 06:00:30;;;;;;;;;;;;;;;4.46;85.75;102375.16;5490496;26;19955;-69
2024/04/21 06:02:55;;;;;;;;;;;;;;;4.37;84.36;102379.16;5490417;26;19927;-71
2024/04/21 06:05:21;;;;;;;;;;;;;;;4.47;85.24;102377.72;5493270;26;19934;-70
2024/04/21 06:07:46;;;;;;;;;;;;;;;4.48;84.87;102379.41;5522802;26;19927;-71
2024/04/21 06:10:11;;;;;;;;;;;;;;;4.70;85.01;102378.25;5490173;26;19996;-71
2024/04/21 06:12:37;;;;;;;;;;;;;;;4.91;83.47;102382.28;5525936;26;19927;-71
2024/04/21 06:15:02;;;;;;;;;;;;;;;4.99;81.67;102380.09;5536045;26;20016;-69
2024/04/21 06:17:28;;;;;;;;;;;;;;;5.04;80.91;102378.03;5543241;25;19938;-71
2024/04/21 06:19:53;;;;;;;;;;;;;;;5.03;80.18;102373.69;5542250;26;19935;-70
2024/04/21 06:22:18;;;;;;;;;;;;;;;5.00;81.45;102381.81;5510837;26;20012;-68
2024/04/21 06:24:44;;;;;;;;;;;;;;;4.95;79.37;102394.41;5536066;26;19932;-66
2024/04/21 06:27:09;;;;;;;;;;;;;;;4.93;79.84;102401.56;5526251;26;19933;-70
2024/04/21 06:29:35;;;;;;;;;;;;;;;5.00;80.24;102408.19;5496478;25;19948;-69
2024/04/21 06:32:00;;;;;;;;;;;;;;;5.25;79.79;102420.88;5538617;25;19935;-70
2024/04/21 06:34:25;;;;;;;;;;;;;;;5.40;78.62;102411.19;5516870;25;19928;-70
2024/04/21 06:36:51;;;;;;;;;;;;;;;5.60;77.73;102419.69;5546791;25;19937;-69
2024/04/21 06:39:16;;;;;;;;;;;;;;;5.66;77.50;102429.03;5555696;25;19934;-68
2024/04/21 06:41:42;;;;;;;;;;;;;;;5.76;77.31;102429.31;5519570;25;19934;-71
2024/04/21 06:44:08;;;;;;;;;;;;;;;5.77;75.16;102431.88;5514890;25;19928;-71
2024/04/21 06:46:33;;;;;;;;;;;;;;;5.76;75.46;102430.19;5538230;25;20279;-72
2024/04/21 06:49:00;;;;;;;;;;;;;;;5.62;74.62;102432.81;5522375;25;19934;-70
2024/04/21 06:51:25;;;;;;;;;;;;;;;5.75;76.70;102427.63;5517191;25;19959;-69
2024/04/21 06:53:50;;;;;;;;;;;;;;;5.83;73.09;102431.53;5512328;25;19976;-71
2024/04/21 06:56:16;;;;;;;;;;;;;;;5.76;74.92;102440.75;5541690;25;19926;-68
2024/04/21 06:58:41;;;;;;;;;;;;;;;5.75;73.21;102449.63;5515797;25;20278;-70
2024/04/21 07:01:06;;;;;;;;;;;;;;;5.69;73.25;102451.78;5542224;25;19938;-70
2024/04/21 07:03:32;;;;;;;;;;;;;;;5.49;73.56;102458.22;5507454;25;19927;-72
2024/04/21 07:05:57;;;;;;;;;;;;;;;5.33;74.36;102457.41;5484097;26;20378;-70
2024/04/21 07:08:22;;;;;;;;;;;;;;;5.18;75.34;102459.97;5563290;25;19954;-70
2024/04/21 07:10:48;;;;;;;;;;;;;;;5.08;76.64;102460.59;5528452;25;20351;-71
2024/04/21 07:13:14;;;;;;;;;;;;;;;5.09;77.40;102455.22;5530719;25;19934;-70
2024/04/21 07:15:39;;;;;;;;;;;;;;;5.04;77.58;102461.69;5524058;25;19938;-74
2024/04/21 07:18:04;;;;;;;;;;;;;;;4.91;78.09;102461.50;5539346;25;19927;-72
2024/04/21 07:20:30;;;;;;;;;;;;;;;4.82;78.73;102472.56;5537686;25;19936;-71
2024/04/21 07:22:55;;;;;;;;;;;;;;;4.75;78.73;102466.78;5532760;25;19926;-72
2024/04/21 07:25:21;;;;;;;;;;;;;;;4.72;78.55;102466.97;5513367;25;19938;-72
2024/04/21 07:27:46;;;;;;;;;;;;;;;4.73;79.25;102462.53;5533737;25;19931;-73
2024/04/21 07:30:11;;;;;;;;;;;;;;;4.69;80.20;102467.13;5475066;26;20370;-71
2024/04/21 07:32:39;;;;;;;;;;;;;;;4.65;80.67;102461.16;5555802;25;19947;-69
2024/04/21 07:35:05;;;;;;;;;;;;;;;4.57;79.92;102458.06;5544252;25;19927;-70
2024/04/21 07:37:31;;;;;;;;;;;;;;;4.53;79.04;102456.53;5494475;26;19951;-68
2024/04/21 07:39:56;;;;;;;;;;;;;;;4.49;78.02;102456.78;5522820;25;20290;-73
2024/04/21 07:42:22;;;;;;;;;;;;;;;4.43;78.17;102465.88;5532892;25;19933;-71
2024/04/21 07:44:47;;;;;;;;;;;;;;;4.44;77.82;102472.00;5477861;26;19927;-71
2024/04/21 07:47:20;;;;;;;;;;;;;;;4.44;77.55;102472.84;5497272;26;19935;-69
2024/04/21 07:50:06;;;;;;;;;;;;;;;4.45;77.56;102474.56;5511704;25;20385;-72
2024/04/21 07:52:34;;;;;;;;;;;;;;;4.49;76.35;102481.38;5494934;26;19927;-77
2024/04/21 07:54:59;;;;;;;;;;;;;;;4.48;76.04;102481.47;5476327;25;19927;-70
2024/04/21 07:57:25;;;;;;;;;;;;;;;4.41;74.77;102478.31;5519822;25;19927;-71
2024/04/21 07:59:50;;;;;;;;;;;;;;;4.47;75.08;102482.41;5531072;25;19927;-71
2024/04/21 08:02:15;;;;;;;;;;;;;;;4.50;74.62;102488.34;5544556;25;19927;-74
2024/04/21 08:04:41;;;;;;;;;;;;;;;4.51;75.35;102489.22;5526417;26;19955;-71
2024/04/21 08:07:06;;;;;;;;;;;;;;;4.63;75.63;102492.06;5477602;26;19936;-70
2024/04/21 08:09:32;;;;;;;;;;;;;;;4.75;75.16;102493.19;5525956;26;19938;-71
2024/04/21 08:11:58;;;;;;;;;;;;;;;4.76;74.91;102491.41;5501812;25;20258;-70
2024/04/21 08:14:24;;;;;;;;;;;;;;;4.64;74.47;102470.03;5521244;26;19927;-71
2024/04/21 08:16:49;;;;;;;;;;;;;;;4.80;73.51;102493.78;5528822;25;19934;-72
2024/04/21 08:19:14;;;;;;;;;;;;;;;4.82;73.25;102489.25;5537622;25;19928;-71
2024/04/21 08:21:40;;;;;;;;;;;;;;;4.77;73.60;102493.94;5501794;26;19955;-71
2024/04/21 08:24:05;;;;;;;;;;;;;;;4.79;72.74;102494.72;5496940;26;19934;-71
2024/04/21 08:26:30;;;;;;;;;;;;;;;4.78;71.68;102492.16;5529505;26;19927;-70
2024/04/21 08:28:56;;;;;;;;;;;;;;;4.77;71.52;102491.31;5541839;25;19931;-70
2024/04/21 08:31:21;;;;;;;;;;;;;;;4.74;70.61;102486.19;5525591;26;19939;-75
2024/04/21 08:33:46;;;;;;;;;;;;;;;4.82;71.91;102483.97;5532640;25;19927;-76
2024/04/21 08:36:12;;;;;;;;;;;;;;;4.90;70.65;102480.91;5543846;25;20007;-69
2024/04/21 08:38:37;;;;;;;;;;;;;;;4.95;69.23;102482.41;5513083;25;20371;-70
2024/04/21 08:41:12;;;;;;;;;;;;;;;4.97;68.87;102492.88;5499480;26;19938;-72
2024/04/21 08:43:38;;;;;;;;;;;;;;;4.97;68.59;102495.50;5506250;25;19931;-70
2024/04/21 08:46:03;;;;;;;;;;;;;;;5.07;68.66;102493.22;5550881;25;19980;-70
2024/04/21 08:48:29;;;;;;;;;;;;;;;5.12;67.14;102502.56;5541732;25;19927;-74
2024/04/21 08:50:55;;;;;;;;;;;;;;;5.11;67.26;102490.31;5537229;25;19927;-70
2024/04/21 08:53:20;;;;;;;;;;;;;;;5.15;68.05;102488.34;5539553;25;19927;-69
2024/04/21 08:55:47;;;;;;;;;;;;;;;5.21;68.11;102491.53;5503785;26;19928;-69
2024/04/21 08:58:14;;;;;;;;;;;;;;;5.26;68.17;102507.09;5539040;25;19934;-70
2024/04/21 09:00:40;;;;;;;;;;;;;;;5.36;68.30;102502.16;5543725;25;19934;-70
2024/04/21 09:03:05;;;;;;;;;;;;;;;5.41;68.19;102508.03;5547707;25;20982;-66
2024/04/21 09:05:33;;;;;;;;;;;;;;;5.50;67.91;102507.53;5515816;25;19995;-69
2024/04/21 09:07:59;;;;;;;;;;;;;;;5.56;67.17;102501.88;5539089;25;20394;-70
2024/04/21 09:10:28;;;;;;;;;;;;;;;5.72;66.78;102500.03;5516508;25;19994;-69
2024/04/21 09:12:54;;;;;;;;;;;;;;;5.93;66.05;102497.97;5521885;25;19928;-69
2024/04/21 09:15:20;;;;;;;;;;;;;;;6.16;65.10;102492.19;5498029;26;19939;-68
2024/04/21 09:17:49;;;;;;;;;;;;;;;6.45;63.64;102501.00;5525677;25;19934;-72
2024/04/21 09:20:17;;;;;;;;;;;;;;;6.75;61.59;102505.34;5536429;25;20390;-74
2024/04/21 09:22:42;;;;;;;;;;;;;;;6.98;60.70;102502.13;5496880;26;19935;-72
2024/04/21 09:25:07;;;;;;;;;;;;;;;7.01;60.53;102504.59;5547928;25;19931;-70
2024/04/21 09:27:33;;;;;;;;;;;;;;;6.95;59.67;102523.50;5530140;25;19927;-71
2024/04/21 09:30:01;;;;;;;;;;;;;;;6.98;59.53;102507.44;5502315;25;19939;-72
2024/04/21 09:32:32;;;;;;;;;;;;;;;6.92;59.03;102509.59;5505556;26;19934;-70
2024/04/21 09:34:58;;;;;;;;;;;;;;;6.79;60.78;102513.00;5533825;25;19942;-72
2024/04/21 09:37:23;;;;;;;;;;;;;;;6.81;58.94;102521.72;5550920;25;20382;-68
2024/04/21 09:39:50;;;;;;;;;;;;;;;6.69;59.41;102529.56;5544549;25;19927;-70
2024/04/21 09:42:16;;;;;;;;;;;;;;;6.58;60.23;102529.38;5542267;25;19931;-69
2024/04/21 09:44:45;;;;;;;;;;;;;;;6.48;60.08;102543.16;5531342;25;19938;-69
2024/04/21 09:47:16;;;;;;;;;;;;;;;6.41;61.00;102544.50;5482049;25;20006;-69
2024/04/21 09:49:45;;;;;;;;;;;;;;;6.46;62.32;102536.25;5512349;25;20289;-69
2024/04/21 09:52:11;;;;;;;;;;;;;;;6.41;62.12;102543.63;5541170;25;20299;-70
2024/04/21 09:54:42;;;;;;;;;;;;;;;6.31;61.49;102545.97;5549268;25;19934;-69
2024/04/21 09:57:09;;;;;;;;;;;;;;;6.26;62.03;102563.91;5552070;25;19933;-70
2024/04/21 09:59:37;;;;;;;;;;;;;;;6.18;61.83;102558.22;5551691;25;19935;-75
2024/04/21 10:02:04;;;;;;;;;;;;;;;6.11;62.75;102564.81;5478283;25;19927;-71
2024/04/21 10:04:30;;;;;;;;;;;;;;;6.09;63.05;102550.84;5541966;25;19935;-68
2024/04/21 10:06:56;;;;;;;;;;;;;;;6.09;63.61;102558.78;5547442;25;19958;-72
2024/04/21 10:09:23;;;;;;;;;;;;;;;6.05;63.46;102562.50;5484418;26;19931;-71
2024/04/21 10:11:49;;;;;;;;;;;;;;;5.97;63.71;102565.63;5503329;25;20041;-70
2024/04/21 10:14:15;;;;;;;;;;;;;;;5.95;63.60;102566.66;5543529;25;19927;-70
2024/04/21 10:16:42;;;;;;;;;;;;;;;5.98;65.11;102563.81;5511370;25;20011;-70
2024/04/21 10:19:12;;;;;;;;;;;;;;;6.09;64.66;102553.50;5549972;25;20185;-69
2024/04/21 10:21:37;;;;;;;;;;;;;;;6.06;64.56;102565.06;5520102;25;19927;-70
2024/04/21 10:24:03;;;;;;;;;;;;;;;6.07;64.09;102556.22;5548582;25;19934;-72
2024/04/21 10:26:32;;;;;;;;;;;;;;;6.11;64.97;102560.38;5521241;25;19935;-69
2024/04/21 10:29:10;;;;;;;;;;;;;;;6.05;65.44;102558.06;5501186;25;19934;-71
2024/04/21 10:31:36;;;;;;;;;;;;;;;6.05;66.27;102562.50;5546931;25;19934;-69
2024/04/21 10:34:05;;;;;;;;;;;;;;;6.08;65.59;102554.44;5527970;25;19931;-70
2024/04/21 10:36:43;;;;;;;;;;;;;;;6.15;66.23;102553.13;5492917;26;19934;-71
2024/04/21 10:39:22;;;;;;;;;;;;;;;6.30;65.60;102556.63;5535713;25;19927;-70
2024/04/21 10:41:50;;;;;;;;;;;;;;;6.27;65.42;102538.31;5558203;25;19938;-67
2024/04/21 10:44:16;;;;;;;;;;;;;;;6.27;64.63;102541.78;5563848;25;19972;-69
2024/04/21 10:46:41;;;;;;;;;;;;;;;6.21;64.97;102531.59;5568457;25;20318;-68
2024/04/21 10:49:08;;;;;;;;;;;;;;;6.21;65.50;102537.72;5575174;25;19933;-66
2024/04/21 10:51:33;;;;;;;;;;;;;;;6.38;65.64;102522.66;5576506;25;19960;-66
2024/04/21 10:53:58;;;;;;;;;;;;;;;6.43;63.74;102516.13;5539102;25;19926;-69
2024/04/21 10:56:24;;;;;;;;;;;;;;;6.53;64.25;102521.72;5497819;25;19939;-69
2024/04/21 10:58:49;;;;;;;;;;;;;;;6.60;63.28;102516.88;5562336;25;19990;-68
2024/04/21 11:01:15;;;;;;;;;;;;;;;6.49;63.50;102526.34;5530864;25;20263;-67
2024/04/21 11:03:43;;;;;;;;;;;;;;;6.53;62.71;102533.16;5563977;25;20278;-71
2024/04/21 11:06:09;;;;;;;;;;;;;;;6.56;62.64;102531.25;5565678;25;19979;-69
2024/04/21 11:08:35;;;;;;;;;;;;;;;6.57;61.80;102527.66;5565518;25;19951;-71
2024/04/21 11:11:00;;;;;;;;;;;;;;;6.64;62.83;102521.03;5564279;25;19937;-68
2024/04/21 11:13:26;;;;;;;;;;;;;;;6.75;62.26;102516.81;5564688;25;19927;-67
2024/04/21 11:15:52;;;;;;;;;;;;;;;6.73;60.83;102505.47;5529718;25;19931;-66
2024/04/21 11:18:17;;;;;;;;;;;;;;;6.64;60.84;102510.44;5530576;25;19999;-69
2024/04/21 11:20:43;;;;;;;;;;;;;;;6.63;61.57;102500.81;5567174;25;19927;-67
2024/04/21 11:23:14;;;;;;;;;;;;;;;6.58;61.14;102524.91;5568105;25;19926;-73
2024/04/21 11:25:39;;;;;;;;;;;;;;;6.75;61.28;102526.53;5563582;25;19955;-72
2024/04/21 11:28:11;;;;;;;;;;;;;;;6.80;61.41;102508.56;5498701;25;19927;-68
2024/04/21 11:30:36;;;;;;;;;;;;;;;6.72;61.84;102521.44;5563093;25;19936;-71
2024/04/21 11:33:02;;;;;;;;;;;;;;;6.67;61.45;102512.94;5530914;25;20002;-68
2024/04/21 11:35:28;;;;;;;;;;;;;;;6.58;60.94;102530.22;5563385;25;19933;-71
2024/04/21 11:37:54;;;;;;;;;;;;;;;6.52;60.92;102535.88;5564202;25;19998;-73
2024/04/21 11:40:21;;;;;;;;;;;;;;;6.56;61.69;102547.13;5563713;25;19963;-69
2024/04/21 11:42:46;;;;;;;;;;;;;;;6.62;60.56;102538.81;5529431;25;20278;-68
2024/04/21 11:45:13;;;;;;;;;;;;;;;6.48;61.10;102550.25;5529659;25;19938;-69
2024/04/21 11:47:42;;;;;;;;;;;;;;;6.39;62.81;102550.81;5498223;25;19934;-70
2024/04/21 11:50:07;;;;;;;;;;;;;;;6.41;62.62;102543.63;5533084;25;19926;-70
2024/04/21 11:52:33;;;;;;;;;;;;;;;6.36;63.30;102543.03;5568617;25;19933;-71
2024/04/21 11:54:58;;;;;;;;;;;;;;;6.32;63.69;102545.00;5573643;25;20825;-68
2024/04/21 11:57:24;;;;;;;;;;;;;;;6.12;63.40;102538.28;5575608;25;19995;-68
2024/04/21 11:59:49;;;;;;;;;;;;;;;6.01;64.68;102534.53;5575388;25;19931;-71
2024/04/21 12:02:15;;;;;;;;;;;;;;;6.11;64.74;102538.38;5566671;25;20357;-68
2024/04/21 12:04:40;;;;;;;;;;;;;;;6.07;64.22;102555.34;5540914;25;19931;-68
2024/04/21 12:07:05;;;;;;;;;;;;;;;6.02;63.73;102546.81;5513606;25;19927;-71
2024/04/21 12:09:31;;;;;;;;;;;;;;;6.04;64.71;102540.50;5502873;25;19962;-69
2024/04/21 12:11:56;;;;;;;;;;;;;;;6.10;64.63;102534.03;5564562;25;19927;-68
2024/04/21 12:14:29;;;;;;;;;;;;;;;6.01;62.07;102545.13;5564897;25;19959;-69
2024/04/21 12:16:54;;;;;;;;;;;;;;;5.82;62.85;102550.63;5533078;25;19971;-70
2024/04/21 12:19:19;;;;;;;;;;;;;;;5.78;62.93;102549.94;5574252;25;19926;-68
2024/04/21 12:21:45;;;;;;;;;;;;;;;5.80;63.18;102542.78;5542827;25;20305;-67
2024/04/21 12:24:10;;;;;;;;;;;;;;;5.77;63.01;102553.50;5565800;25;19927;-70
2024/04/21 12:26:35;;;;;;;;;;;;;;;5.76;64.08;102551.78;5563182;25;19927;-67
2024/04/21 12:29:01;;;;;;;;;;;;;;;5.85;63.24;102547.78;5531211;25;19933;-70
2024/04/21 12:31:26;;;;;;;;;;;;;;;5.84;63.04;102546.94;5537360;25;19934;-70
2024/04/21 12:33:52;;;;;;;;;;;;;;;5.83;62.46;102553.16;5578629;25;19919;-69
2024/04/21 12:36:17;;;;;;;;;;;;;;;5.90;62.86;102559.84;5537890;25;19933;-70